createdAt,value
2023-03-23T15:58:13.360Z,12.40
2023-03-23T16:04:10.732Z,12.90
2023-03-23T16:10:04.561Z,12.80
2023-03-23T16:15:58.013Z,12.60
2023-03-23T16:21:52.805Z,12.50
2023-03-23T16:27:51.779Z,12.50
2023-03-23T16:33:45.993Z,12.50
2023-03-23T16:39:43.225Z,12.30
2023-03-23T16:45:36.766Z,12.30
2023-03-23T16:51:30.199Z,12.20
2023-03-23T16:57:25.705Z,12.30
2023-03-23T17:03:19.497Z,12.30
2023-03-23T17:09:12.989Z,12.20
2023-03-23T17:15:09.273Z,12.10
2023-03-23T17:21:02.639Z,12.00
2023-03-23T17:26:56.331Z,12.00
2023-03-23T17:32:51.242Z,12.10
2023-03-23T17:38:44.672Z,12.00
2023-03-23T17:44:38.216Z,12.00
2023-03-23T17:50:32.952Z,12.00
2023-03-23T17:56:26.675Z,11.90
2023-03-23T18:02:20.485Z,11.80
2023-03-23T18:08:15.767Z,11.80
2023-03-23T18:14:09.343Z,11.70
2023-03-23T18:20:03.649Z,11.50
2023-03-23T18:25:58.032Z,11.50
2023-03-23T18:31:51.512Z,11.40
2023-03-23T18:37:45.005Z,11.40
2023-03-23T18:43:39.646Z,11.40
2023-03-23T18:49:34.120Z,11.40
2023-03-23T18:55:27.843Z,11.40
2023-03-23T19:01:22.768Z,11.40
2023-03-23T19:07:17.439Z,11.30
2023-03-23T19:13:11.704Z,11.40
2023-03-23T19:19:07.559Z,11.30
2023-03-23T19:25:01.226Z,11.40
2023-03-23T19:30:56.661Z,11.20
2023-03-23T19:36:56.495Z,11.20
2023-03-23T19:42:58.762Z,11.20
2023-03-23T19:48:52.449Z,11.20
2023-03-23T19:54:47.414Z,11.20
2023-03-23T20:00:41.263Z,11.20
2023-03-23T20:12:29.003Z,11.10
2023-03-23T20:18:22.575Z,11.20
2023-03-23T20:24:16.502Z,11.20
2023-03-23T20:30:12.622Z,11.10
2023-03-23T20:36:08.582Z,11.10
2023-03-23T20:42:06.130Z,11.10
2023-03-23T20:48:02.393Z,11.00
2023-03-23T20:53:56.037Z,11.10
2023-03-23T20:59:49.797Z,11.00
2023-03-23T21:05:45.533Z,11.00
2023-03-23T21:11:39.185Z,11.00
2023-03-23T21:17:32.290Z,11.00
2023-03-23T21:23:27.140Z,11.10
2023-03-23T21:29:22.145Z,11.00
2023-03-23T21:35:15.919Z,11.00
2023-03-23T21:41:12.666Z,11.00
2023-03-23T21:47:06.096Z,11.00
2023-03-23T21:52:59.563Z,11.10
2023-03-23T21:58:53.921Z,11.00
2023-03-23T22:04:47.664Z,11.00
2023-03-23T22:10:42.247Z,11.10
2023-03-23T22:16:37.161Z,11.10
2023-03-23T22:22:31.077Z,11.10
2023-03-23T22:28:26.710Z,11.10
2023-03-23T22:34:22.325Z,11.20
2023-03-23T22:40:15.995Z,11.20
2023-03-23T22:46:09.707Z,11.10
2023-03-23T22:52:05.004Z,11.20
2023-03-23T22:57:58.599Z,11.20
2023-03-23T23:03:52.294Z,11.20
2023-03-23T23:09:47.525Z,11.30
2023-03-23T23:15:44.841Z,11.30
2023-03-23T23:21:38.006Z,11.20
2023-03-23T23:27:32.649Z,11.30
2023-03-23T23:33:26.218Z,11.20
2023-03-23T23:39:19.794Z,11.30
2023-03-23T23:45:15.974Z,11.30
2023-03-23T23:51:10.209Z,11.30
2023-03-23T23:57:03.999Z,11.30
